createdAt,value
2022-12-06T00:00:38.681Z,98337.50
2022-12-06T00:05:44.698Z,98345.09
2022-12-06T00:10:47.963Z,98346.38
2022-12-06T00:15:49.783Z,98336.72
2022-12-06T00:20:51.641Z,98341.94
2022-12-06T00:25:53.493Z,98350.50
2022-12-06T00:31:00.363Z,98335.28
2022-12-06T00:36:08.283Z,98330.53
2022-12-06T00:41:13.647Z,98333.19
2022-12-06T00:46:18.747Z,98326.22
2022-12-06T00:51:22.005Z,98334.47
2022-12-06T00:56:23.936Z,98339.38
2022-12-06T01:01:28.832Z,98340.66
2022-12-06T01:06:33.371Z,98331.81
2022-12-06T01:11:35.351Z,98341.16
2022-12-06T01:16:37.278Z,98334.97
2022-12-06T01:21:39.179Z,98322.94
2022-12-06T01:26:41.047Z,98312.34
2022-12-06T01:31:42.973Z,98297.00
2022-12-06T01:36:45.213Z,98299.03
2022-12-06T01:41:57.348Z,98296.84
2022-12-06T01:46:59.416Z,98285.75
2022-12-06T01:52:09.802Z,98279.56
2022-12-06T01:57:15.649Z,98285.63
2022-12-06T02:02:17.625Z,98270.59
2022-12-06T02:07:22.337Z,98256.03
2022-12-06T02:12:24.151Z,98257.63
2022-12-06T02:17:54.322Z,98242.75
2022-12-06T02:23:11.266Z,98232.31
2022-12-06T02:28:31.589Z,98231.84
2022-12-06T02:33:46.935Z,98229.19
2022-12-06T02:38:54.034Z,98226.47
2022-12-06T02:44:00.012Z,98223.13
2022-12-06T02:49:04.822Z,98226.28
2022-12-06T02:54:10.124Z,98228.66
2022-12-06T02:59:11.947Z,98222.34
2022-12-06T03:04:49.644Z,98208.44
2022-12-06T03:10:28.745Z,98205.25
2022-12-06T03:15:42.339Z,98218.09
2022-12-06T03:20:58.925Z,98207.50
2022-12-06T03:26:03.225Z,98207.81
2022-12-06T03:31:10.864Z,98208.13
2022-12-06T03:36:14.536Z,98203.53
2022-12-06T03:41:18.717Z,98198.94
2022-12-06T03:46:27.999Z,98193.41
2022-12-06T03:51:32.664Z,98191.50
2022-12-06T03:56:36.926Z,98189.94
2022-12-06T04:01:39.941Z,98190.22
2022-12-06T04:06:41.836Z,98191.34
2022-12-06T04:11:43.671Z,98196.09
2022-12-06T04:17:03.787Z,98190.28
2022-12-06T04:22:24.508Z,98193.91
2022-12-06T04:27:44.663Z,98185.84
2022-12-06T04:33:05.240Z,98169.88
2022-12-06T04:38:25.855Z,98171.47
2022-12-06T04:43:42.985Z,98176.97
2022-12-06T04:48:44.789Z,98178.41
2022-12-06T04:53:46.603Z,98175.88
2022-12-06T04:58:48.418Z,98178.88
2022-12-06T05:03:50.334Z,98171.59
2022-12-06T05:08:52.423Z,98169.38
2022-12-06T05:13:54.317Z,98163.06
2022-12-06T05:18:56.161Z,98164.53
2022-12-06T05:23:58.700Z,98164.38
2022-12-06T05:29:00.586Z,98173.53
2022-12-06T05:34:02.422Z,98170.03
2022-12-06T05:39:04.394Z,98175.56
2022-12-06T05:44:06.226Z,98169.09
2022-12-06T05:49:08.088Z,98162.00
2022-12-06T05:54:10.083Z,98162.16
2022-12-06T05:59:11.996Z,98157.09
2022-12-06T06:04:13.789Z,98155.34
2022-12-06T06:09:15.567Z,98154.09
2022-12-06T06:14:17.422Z,98166.56
2022-12-06T06:19:19.411Z,98152.81
2022-12-06T06:24:21.246Z,98156.91
2022-12-06T06:29:23.254Z,98157.25
2022-12-06T06:34:26.003Z,98159.44
2022-12-06T06:39:27.879Z,98167.50
2022-12-06T06:44:29.687Z,98160.72
2022-12-06T06:49:31.910Z,98162.75
2022-12-06T06:54:33.733Z,98172.72
2022-12-06T06:59:35.575Z,98167.66
2022-12-06T07:04:37.440Z,98161.66
2022-12-06T07:09:40.155Z,98155.66
2022-12-06T07:14:42.033Z,98159.75
2022-12-06T07:19:43.831Z,98170.81
2022-12-06T07:24:52.079Z,98166.38
2022-12-06T07:29:54.299Z,98177.31
2022-12-06T07:34:56.117Z,98174.59
2022-12-06T07:39:58.237Z,98178.75
2022-12-06T07:45:04.613Z,98173.19
2022-12-06T07:50:17.600Z,98175.28
2022-12-06T07:55:20.365Z,98171.16
2022-12-06T08:00:22.262Z,98167.66
2022-12-06T08:05:24.112Z,98165.31
2022-12-06T08:10:25.902Z,98162.94
2022-12-06T08:15:27.721Z,98168.63
2022-12-06T08:20:29.612Z,98161.66
2022-12-06T08:25:31.448Z,98153.47
2022-12-06T08:30:33.643Z,98155.16
2022-12-06T08:35:38.380Z,98162.44
2022-12-06T08:40:40.255Z,98165.31
2022-12-06T08:45:42.136Z,98157.25
2022-12-06T08:50:44.081Z,98168.13
2022-12-06T08:56:01.889Z,98168.59
2022-12-06T09:01:19.584Z,98160.09
2022-12-06T09:06:22.243Z,98163.41
2022-12-06T09:11:25.595Z,98154.09
2022-12-06T09:16:27.659Z,98163.22
2022-12-06T09:21:30.716Z,98158.81
2022-12-06T09:26:32.719Z,98161.81
2022-12-06T09:31:36.025Z,98151.38
2022-12-06T09:36:44.216Z,98153.09
2022-12-06T09:42:12.470Z,98143.47
2022-12-06T09:47:42.442Z,98144.09
2022-12-06T09:52:59.932Z,98130.66
2022-12-06T09:58:16.813Z,98125.28
2022-12-06T10:03:29.774Z,98120.72
2022-12-06T10:08:56.121Z,98118.47
2022-12-06T10:14:21.496Z,98114.38
2022-12-06T10:19:53.957Z,98103.28
2022-12-06T10:25:31.743Z,98099.19
2022-12-06T10:30:40.566Z,98102.66
2022-12-06T10:36:03.442Z,98096.03
2022-12-06T10:41:21.510Z,98094.47
2022-12-06T10:47:03.814Z,98090.84
2022-12-06T10:52:39.599Z,98083.72
2022-12-06T10:57:44.884Z,98087.38
2022-12-06T11:03:08.271Z,98078.56
2022-12-06T11:08:21.854Z,98086.78
2022-12-06T11:13:34.438Z,98080.13
2022-12-06T11:18:38.180Z,98078.72
2022-12-06T11:24:06.779Z,98074.00
2022-12-06T11:29:14.273Z,98067.66
2022-12-06T11:34:22.840Z,98068.47
2022-12-06T11:39:24.893Z,98074.94
2022-12-06T11:44:36.337Z,98070.66
2022-12-06T11:49:41.745Z,98068.47
2022-12-06T11:54:55.098Z,98078.13
2022-12-06T12:00:20.675Z,98060.25
2022-12-06T12:05:34.353Z,98053.47
2022-12-06T12:10:44.309Z,98048.56
2022-12-06T12:15:53.247Z,98046.03
2022-12-06T12:20:57.705Z,98044.78
2022-12-06T12:26:05.142Z,98034.69
2022-12-06T12:31:22.365Z,98030.41
2022-12-06T12:36:29.269Z,98030.69
2022-12-06T12:41:45.795Z,98027.72
2022-12-06T12:47:02.594Z,98032.44
2022-12-06T12:52:29.411Z,98025.19
2022-12-06T12:57:31.516Z,98033.09
2022-12-06T13:02:36.305Z,98033.09
2022-12-06T13:07:42.377Z,98032.63
2022-12-06T13:12:50.414Z,98034.69
2022-12-06T13:17:59.953Z,98018.88
2022-12-06T13:23:08.585Z,98025.06
2022-12-06T13:28:19.000Z,98017.00
2022-12-06T13:33:28.015Z,98019.53
2022-12-06T13:38:32.622Z,98017.31
2022-12-06T13:43:39.572Z,98013.84
2022-12-06T13:49:01.621Z,98005.31
2022-12-06T13:54:06.458Z,98012.91
2022-12-06T13:59:11.276Z,98011.94
2022-12-06T14:09:44.964Z,98011.00
2022-12-06T14:15:01.643Z,98006.88
2022-12-06T14:20:26.390Z,98011.47
2022-12-06T14:25:31.594Z,98011.31
2022-12-06T14:30:33.949Z,98018.13
2022-12-06T14:35:36.849Z,98019.72
2022-12-06T14:41:00.980Z,98021.91
2022-12-06T14:46:06.554Z,98020.31
2022-12-06T14:51:23.213Z,98013.69
2022-12-06T14:56:30.389Z,98021.09
2022-12-06T15:01:32.366Z,98028.19
2022-12-06T15:06:36.532Z,98029.00
2022-12-06T15:11:59.841Z,98020.94
2022-12-06T15:17:02.992Z,98029.00
2022-12-06T15:22:18.744Z,98024.22
2022-12-06T15:27:26.753Z,98021.88
2022-12-06T15:32:28.629Z,98022.44
2022-12-06T15:37:38.855Z,98022.25
2022-12-06T15:42:42.081Z,98018.34
2022-12-06T15:47:45.065Z,98012.84
2022-12-06T15:52:46.878Z,98012.56
2022-12-06T15:57:48.747Z,98019.03
2022-12-06T16:02:50.618Z,98024.22
2022-12-06T16:07:52.546Z,98022.47
2022-12-06T16:13:12.889Z,98016.97
2022-12-06T16:18:14.907Z,98013.94
2022-12-06T16:24:11.435Z,98018.94
2022-12-06T16:29:01.008Z,98008.34
2022-12-06T16:34:02.868Z,98015.28
2022-12-06T16:39:06.680Z,98011.50
2022-12-06T16:44:08.562Z,98013.53
2022-12-06T16:54:44.929Z,98006.50
2022-12-06T16:59:47.363Z,98004.88
2022-12-06T17:04:49.159Z,98012.28
2022-12-06T17:09:50.998Z,98008.97
2022-12-06T17:14:54.486Z,97995.09
2022-12-06T17:19:56.509Z,97998.59
2022-12-06T17:24:59.954Z,97997.03
2022-12-06T17:30:02.094Z,97997.84
2022-12-06T17:35:04.473Z,98001.00
2022-12-06T17:40:07.684Z,98006.19
2022-12-06T17:45:09.999Z,98006.81
2022-12-06T17:50:12.030Z,98002.22
2022-12-06T17:55:14.801Z,98011.16
2022-12-06T18:00:17.139Z,98002.50
2022-12-06T18:05:19.124Z,98002.00
2022-12-06T18:10:21.138Z,98003.59
2022-12-06T18:15:38.432Z,98003.13
2022-12-06T18:20:41.296Z,98021.06
2022-12-06T18:25:44.035Z,98014.59
2022-12-06T18:30:46.040Z,98014.94
2022-12-06T18:35:50.340Z,98010.50
2022-12-06T18:40:52.414Z,98020.06
2022-12-06T18:46:01.354Z,98014.25
2022-12-06T18:51:11.169Z,98014.88
2022-12-06T18:56:14.826Z,98011.09
2022-12-06T19:01:21.987Z,98013.75
2022-12-06T19:06:26.496Z,98013.63
2022-12-06T19:11:28.793Z,98018.97
2022-12-06T19:16:36.507Z,98011.97
2022-12-06T19:21:38.604Z,98022.22
2022-12-06T19:26:40.513Z,98022.94
2022-12-06T19:31:42.794Z,98023.75
2022-12-06T19:36:45.236Z,98024.06
2022-12-06T19:42:06.231Z,98029.00
2022-12-06T19:47:08.179Z,98029.97
2022-12-06T19:52:10.188Z,98032.97
2022-12-06T19:57:12.015Z,98031.47
2022-12-06T20:02:14.053Z,98029.44
2022-12-06T20:07:16.011Z,98019.53
2022-12-06T20:12:17.857Z,98024.41
2022-12-06T20:17:23.673Z,98026.81
2022-12-06T20:22:25.694Z,98019.56
2022-12-06T20:27:46.189Z,98015.47
2022-12-06T20:32:49.352Z,98014.53
2022-12-06T20:37:51.556Z,98016.72
2022-12-06T20:42:53.376Z,98004.06
2022-12-06T20:47:55.202Z,97998.72
2022-12-06T20:52:57.018Z,98010.06
2022-12-06T20:57:58.960Z,98008.34
2022-12-06T21:03:00.933Z,98006.41
2022-12-06T21:08:02.888Z,98012.50
2022-12-06T21:13:06.265Z,98014.63
2022-12-06T21:18:08.249Z,98016.03
2022-12-06T21:23:10.092Z,98016.19
2022-12-06T21:28:12.071Z,98013.81
2022-12-06T21:33:13.889Z,98009.72
2022-12-06T21:38:16.987Z,98012.94
2022-12-06T21:43:18.827Z,98018.28
2022-12-06T21:48:20.666Z,98016.72
2022-12-06T21:53:22.507Z,98023.66
2022-12-06T21:58:24.581Z,98018.03
2022-12-06T22:03:26.476Z,98020.56
2022-12-06T22:08:28.291Z,98017.91
2022-12-06T22:13:30.208Z,98012.22
2022-12-06T22:18:32.586Z,98008.63
2022-12-06T22:23:34.761Z,98011.72
2022-12-06T22:28:36.735Z,98007.81
2022-12-06T22:33:39.086Z,97999.78
2022-12-06T22:38:41.061Z,98003.53
2022-12-06T22:43:43.195Z,98000.22
2022-12-06T22:48:45.564Z,98006.09
2022-12-06T22:53:52.136Z,98001.94
2022-12-06T22:58:55.584Z,98002.41
2022-12-06T23:04:00.129Z,98001.94
2022-12-06T23:09:02.659Z,97996.31
2022-12-06T23:14:04.767Z,98000.53
2022-12-06T23:19:06.615Z,98008.06
2022-12-06T23:24:11.936Z,98001.13
2022-12-06T23:29:15.737Z,98001.75
2022-12-06T23:34:22.592Z,98001.94
2022-12-06T23:39:24.720Z,98007.53
2022-12-06T23:44:26.490Z,97999.81
2022-12-06T23:49:28.331Z,98004.41
2022-12-06T23:54:30.090Z,98001.88
2022-12-06T23:59:31.944Z,97998.72
